Tupelo Regional Airport

Airport
ICAO code: 
KTUP
Summary
ICAO Region: 
NAM
Territory: 
Location: 
Tupelo, Mississippi,
Coordinates: 
Aerial View: 
34° 15' 54.585" N, 88° 46' 2.77" W
Metar
Observation
KTUP 040753Z AUTO 20005KT 5SM BR BKN035 14/13 A3005 RMK AO2 SLP174 T01390128 $
Station
Tupelo, Tupelo Regional Airport
Date/Time
2021-12-04 07:53:00
Wind direction
200°
Wind speed
05 kts
Lowest cloud amount
broken clouds
Temperature
13.9°C
Dew point
12.8°C
Humidity
93%
Weather condition
mist

Description

Tupelo Regional Airport is a public use airport located 6 km west of the central business district of Tupelo, a city in Lee County, Mississippi.

Climatology

Humid “subtropical” climate (Köppen climate classification Cfa) - characterized by hot, humid summers and cool winters. Significant amounts of precipitation occur in all seasons in most areas. Winter rainfall (and sometimes snowfall) is associated with large storms that the westerlies steer from west to east. Most summer rainfall occurs during thunderstorms and occasional tropical storms (hurricanes).

Runways

Designator Length Width Surface Rops
18/36 1981 30 ASP Yes/Yes
Airport map: 
Aerial View: 

SKYbrary Partners:

Safety knowledge contributed by: